Time;durP1;ratioP1;P1;durP2;ratioP2;P2;SDS_P1;SDS_P2;PMS_P1;PMS_P2;Temp;Humidity;BMP_temperature;BMP_pressure;BME280_temperature;BME280_humidity;BME280_pressure;Samples;Min_cycle;Max_cycle;Signal;HPM_P1;HPM_P2
2022/05/10 00:00:32;;;;;;;14.27;9.68;;;12.10;99.90;;;;;;5051970;28;20053;-76
2022/05/10 00:03:00;;;;;;;18.10;9.50;;;12.10;99.90;;;;;;5052850;28;20076;-76
2022/05/10 00:05:34;;;;;;;17.88;9.80;;;12.10;99.90;;;;;;5053049;28;20435;-76
2022/05/10 00:08:01;;;;;;;19.50;10.30;;;12.10;99.90;;;;;;5053626;28;20036;-76
2022/05/10 00:10:27;;;;;;;18.95;9.07;;;12.10;99.90;;;;;;5053034;28;20123;-76
2022/05/10 00:12:53;;;;;;;17.88;9.57;;;12.10;99.90;;;;;;5052944;28;20128;-76
2022/05/10 00:15:19;;;;;;;14.05;9.05;;;12.10;99.90;;;;;;5053031;28;20102;-76
2022/05/10 00:17:45;;;;;;;15.20;9.38;;;12.10;99.90;;;;;;5051709;28;20451;-78
2022/05/10 00:20:18;;;;;;;18.20;10.35;;;12.10;99.90;;;;;;5054166;28;20392;-77
2022/05/10 00:22:44;;;;;;;14.52;7.97;;;12.10;99.90;;;;;;5056694;28;20041;-77
2022/05/10 00:25:13;;;;;;;16.48;9.00;;;12.10;99.90;;;;;;5056621;28;20056;-77
2022/05/10 00:27:39;;;;;;;15.63;8.55;;;12.10;99.90;;;;;;5056588;28;20044;-77
2022/05/10 00:30:06;;;;;;;16.90;8.35;;;12.10;99.90;;;;;;5055289;28;20040;-77
2022/05/10 00:32:34;;;;;;;18.65;9.55;;;12.10;99.90;;;;;;5056402;28;20099;-77
2022/05/10 00:35:00;;;;;;;15.82;9.38;;;12.10;99.90;;;;;;5056431;28;20045;-78
2022/05/10 00:37:26;;;;;;;16.65;8.60;;;12.10;99.90;;;;;;5056192;28;20045;-77
2022/05/10 00:39:52;;;;;;;17.90;8.75;;;12.10;99.90;;;;;;5055168;28;20052;-77
2022/05/10 00:42:27;;;;;;;15.10;8.95;;;12.10;99.90;;;;;;5056281;28;20079;-78
2022/05/10 00:45:06;;;;;;;17.05;8.95;;;12.10;99.90;;;;;;5056238;28;20112;-77
2022/05/10 00:48:17;;;;;;;16.00;8.43;;;12.00;99.90;;;;;;5056275;28;20048;-77
2022/05/10 00:50:52;;;;;;;17.30;8.20;;;12.00;99.90;;;;;;5047462;28;20099;-77
2022/05/10 00:53:27;;;;;;;15.18;8.57;;;12.00;99.90;;;;;;5056087;28;20124;-77
2022/05/10 00:56:12;;;;;;;14.70;8.02;;;12.10;99.90;;;;;;5055824;28;20476;-77
2022/05/10 00:59:07;;;;;;;18.58;9.13;;;12.10;99.90;;;;;;5055871;28;20049;-77
2022/05/10 01:01:34;;;;;;;17.00;7.85;;;12.10;99.90;;;;;;5045813;28;20065;-77
2022/05/10 01:04:25;;;;;;;19.00;9.20;;;12.00;99.90;;;;;;5055420;28;20041;-77
2022/05/10 01:06:54;;;;;;;14.23;8.13;;;12.00;99.90;;;;;;5088090;28;20614;-77
2022/05/10 01:09:34;;;;;;;14.30;8.07;;;12.10;99.90;;;;;;5055657;28;20136;-77
2022/05/10 01:12:28;;;;;;;16.30;8.63;;;12.10;99.90;;;;;;5055779;28;20086;-77
2022/05/10 01:15:22;;;;;;;19.77;8.88;;;12.10;99.90;;;;;;5055544;28;20476;-77
2022/05/10 01:17:49;;;;;;;18.85;9.60;;;12.10;99.90;;;;;;5053409;28;20064;-77
2022/05/10 01:20:27;;;;;;;15.02;8.50;;;12.10;99.90;;;;;;5055583;28;20072;-77
2022/05/10 01:23:41;;;;;;;16.63;9.30;;;12.10;99.90;;;;;;5055581;28;20089;-78
2022/05/10 01:26:30;;;;;;;16.65;9.02;;;12.20;99.90;;;;;;5055528;28;20041;-78
2022/05/10 01:29:01;;;;;;;14.80;8.82;;;12.10;99.90;;;;;;5055148;28;20114;-78
2022/05/10 01:33:29;;;;;;;16.80;8.77;;;12.20;99.90;;;;;;5054804;28;20045;-78
2022/05/10 01:34:38;;;;;;;18.98;8.88;;;12.20;99.90;;;;;;5055255;28;20044;-78
2022/05/10 01:37:11;;;;;;;16.50;8.88;;;12.20;99.90;;;;;;5055157;28;20045;-78
2022/05/10 01:39:45;;;;;;;19.13;9.57;;;12.20;99.90;;;;;;5055311;28;20041;-78
2022/05/10 01:42:43;;;;;;;14.90;7.43;;;12.20;99.90;;;;;;5055154;28;20047;-78
2022/05/10 01:45:43;;;;;;;13.65;8.23;;;12.20;99.90;;;;;;5053880;28;20493;-78
2022/05/10 01:48:11;;;;;;;20.40;7.80;;;12.30;99.90;;;;;;5038351;28;20057;-78
2022/05/10 01:50:52;;;;;;;18.63;7.68;;;12.40;99.90;;;;;;5054922;28;20099;-77
2022/05/10 01:53:24;;;;;;;15.05;7.45;;;12.40;99.90;;;;;;5054987;28;20124;-77
2022/05/10 01:56:11;;;;;;;14.95;8.18;;;12.50;99.90;;;;;;5054944;28;20045;-78
2022/05/10 01:58:38;;;;;;;17.73;7.43;;;12.50;99.90;;;;;;5053662;28;20057;-77
2022/05/10 02:01:10;;;;;;;20.35;8.20;;;12.50;99.90;;;;;;5054810;28;20049;-77
2022/05/10 02:03:53;;;;;;;13.77;7.75;;;12.60;99.90;;;;;;5054486;28;20132;-77
2022/05/10 02:06:48;;;;;;;13.13;8.45;;;12.60;99.90;;;;;;5054476;28;20048;-77
2022/05/10 02:09:23;;;;;;;17.13;8.30;;;12.70;99.90;;;;;;5054644;28;20051;-77
2022/05/10 02:12:00;;;;;;;18.75;9.02;;;12.70;99.90;;;;;;5054533;28;20049;-77
2022/05/10 02:14:50;;;;;;;17.45;8.73;;;12.70;99.90;;;;;;5053316;28;20048;-78
2022/05/10 02:17:24;;;;;;;16.63;8.50;;;12.80;99.90;;;;;;5054557;28;20041;-77
2022/05/10 02:19:58;;;;;;;12.57;8.15;;;12.80;99.90;;;;;;5054418;28;20128;-77
2022/05/10 02:22:39;;;;;;;16.38;8.60;;;12.80;99.90;;;;;;5054440;28;20041;-78
2022/05/10 02:25:11;;;;;;;13.43;8.77;;;12.80;99.90;;;;;;5054325;28;20099;-78
2022/05/10 02:28:14;;;;;;;14.18;8.18;;;12.80;99.90;;;;;;5054284;28;20084;-77
2022/05/10 02:30:40;;;;;;;16.52;8.73;;;12.80;99.90;;;;;;5052735;28;20052;-76
2022/05/10 02:33:13;;;;;;;15.68;8.40;;;12.80;99.90;;;;;;5054183;28;20087;-76
2022/05/10 02:35:47;;;;;;;13.65;8.25;;;12.80;99.90;;;;;;5054327;28;20482;-76
2022/05/10 02:38:19;;;;;;;18.05;9.23;;;12.80;99.90;;;;;;5053833;28;20365;-77
2022/05/10 02:40:46;;;;;;;16.80;9.02;;;12.80;99.90;;;;;;5054017;28;20491;-77
2022/05/10 02:43:23;;;;;;;15.65;8.48;;;12.80;99.90;;;;;;5053362;28;20041;-78
2022/05/10 02:45:50;;;;;;;16.35;9.30;;;12.90;99.90;;;;;;5054006;28;20044;-77
2022/05/10 02:48:22;;;;;;;21.65;9.70;;;12.90;99.90;;;;;;5053924;28;20087;-77
2022/05/10 02:50:48;;;;;;;14.02;8.98;;;12.80;99.90;;;;;;5054097;28;20139;-77
2022/05/10 02:53:14;;;;;;;19.90;9.55;;;12.80;99.90;;;;;;5053918;28;20128;-77
2022/05/10 02:55:47;;;;;;;18.13;8.70;;;12.80;99.90;;;;;;5052553;28;20132;-77
2022/05/10 02:58:30;;;;;;;;;;;12.80;99.90;;;;;;5053445;28;20127;-77
2022/05/10 03:01:04;;;;;;;16.00;9.00;;;12.80;99.90;;;;;;5053898;28;20026;-77
2022/05/10 03:03:30;;;;;;;17.35;9.30;;;12.80;99.90;;;;;;5053489;28;20089;-77
2022/05/10 03:05:56;;;;;;;14.07;8.77;;;12.80;99.90;;;;;;5053582;28;20496;-77
2022/05/10 03:08:22;;;;;;;16.27;10.18;;;12.80;99.90;;;;;;5054072;28;20059;-77
2022/05/10 03:10:48;;;;;;;15.90;10.07;;;12.80;99.90;;;;;;5053532;28;20149;-77
2022/05/10 03:13:15;;;;;;;13.38;9.20;;;12.80;99.90;;;;;;5053554;28;20129;-77
2022/05/10 03:15:41;;;;;;;18.42;10.13;;;12.80;99.90;;;;;;5053631;28;20044;-77
2022/05/10 03:18:06;;;;;;;17.38;9.63;;;12.80;99.90;;;;;;5053430;28;20045;-77
2022/05/10 03:20:32;;;;;;;17.40;10.23;;;12.80;99.90;;;;;;5053374;28;20081;-77
2022/05/10 03:22:58;;;;;;;16.05;10.50;;;12.80;99.90;;;;;;5053452;28;20048;-77
2022/05/10 03:25:25;;;;;;;14.98;10.07;;;12.80;99.90;;;;;;5053481;28;20041;-77
2022/05/10 03:27:51;;;;;;;16.77;9.90;;;12.80;99.90;;;;;;5053233;28;20037;-77
2022/05/10 03:30:17;;;;;;;16.65;10.35;;;12.80;99.90;;;;;;5053426;28;20454;-76
2022/05/10 03:32:43;;;;;;;17.67;10.10;;;12.80;99.90;;;;;;5052530;28;20045;-77
2022/05/10 03:35:11;;;;;;;22.90;10.75;;;12.80;99.90;;;;;;5085940;28;20032;-77
2022/05/10 03:37:36;;;;;;;18.73;11.27;;;12.80;99.90;;;;;;5053375;28;20049;-76
2022/05/10 03:40:03;;;;;;;17.33;9.43;;;12.80;99.90;;;;;;5053356;28;20056;-76
2022/05/10 03:42:29;;;;;;;17.55;9.95;;;12.80;99.90;;;;;;5052051;28;20116;-76
2022/05/10 03:44:55;;;;;;;17.70;10.30;;;12.80;99.90;;;;;;5053313;28;20041;-76
2022/05/10 03:47:23;;;;;;;20.80;11.13;;;12.80;99.90;;;;;;5053033;28;20151;-77
2022/05/10 03:49:49;;;;;;;16.27;10.55;;;12.80;99.90;;;;;;5053000;28;20044;-77
2022/05/10 03:52:16;;;;;;;20.75;10.88;;;12.80;99.90;;;;;;5052601;28;20128;-77
2022/05/10 03:54:42;;;;;;;20.25;10.80;;;12.80;99.90;;;;;;5052772;28;20122;-77
2022/05/10 03:57:08;;;;;;;18.15;10.75;;;12.80;99.90;;;;;;5056239;28;20508;-77
2022/05/10 03:59:34;;;;;;;14.95;10.43;;;12.80;99.90;;;;;;5057144;28;20106;-77
2022/05/10 04:01:59;;;;;;;15.63;10.70;;;12.80;99.90;;;;;;5056554;28;20127;-78
2022/05/10 04:04:25;;;;;;;17.60;11.23;;;12.80;99.90;;;;;;5056772;28;20044;-77
2022/05/10 04:06:50;;;;;;;15.98;10.45;;;12.80;99.90;;;;;;5056642;28;20067;-77
2022/05/10 04:09:16;;;;;;;18.02;10.85;;;12.90;99.90;;;;;;5056711;28;20045;-77
2022/05/10 04:11:44;;;;;;;20.52;11.45;;;12.90;99.90;;;;;;5056846;28;20119;-77
2022/05/10 04:14:11;;;;;;;19.15;11.38;;;12.90;99.90;;;;;;5056505;28;20095;-77
2022/05/10 04:16:37;;;;;;;20.80;11.57;;;12.90;99.90;;;;;;5056676;28;20075;-77
2022/05/10 04:19:02;;;;;;;16.92;11.27;;;13.00;99.90;;;;;;5056813;28;20448;-77
2022/05/10 04:21:28;;;;;;;19.75;11.40;;;12.90;99.90;;;;;;5056569;28;20460;-77
2022/05/10 04:23:54;;;;;;;18.25;11.52;;;13.00;99.90;;;;;;5055216;28;20044;-77
2022/05/10 04:26:19;;;;;;;17.10;11.10;;;13.00;99.90;;;;;;5056672;28;20037;-77
2022/05/10 04:28:45;;;;;;;18.33;11.70;;;13.00;99.90;;;;;;5056457;28;20412;-77
2022/05/10 04:31:12;;;;;;;19.77;11.65;;;13.00;99.90;;;;;;5056341;28;20051;-77
2022/05/10 04:33:38;;;;;;;18.92;11.80;;;13.00;99.90;;;;;;5056361;28;20033;-77
2022/05/10 04:36:04;;;;;;;16.15;10.65;;;13.00;99.90;;;;;;5056261;28;20079;-77
2022/05/10 04:38:30;;;;;;;17.20;11.48;;;13.00;99.90;;;;;;5056218;28;20047;-77
2022/05/10 04:43:40;;;;;;;16.60;11.38;;;13.10;99.90;;;;;;5055956;28;20393;-77
2022/05/10 04:46:06;;;;;;;20.30;10.80;;;13.10;99.90;;;;;;5055912;28;20055;-77
2022/05/10 04:48:33;;;;;;;18.48;10.93;;;13.10;99.90;;;;;;5055774;28;20045;-77
2022/05/10 04:51:00;;;;;;;16.58;10.95;;;13.10;99.90;;;;;;5055723;28;20051;-77
2022/05/10 04:53:25;;;;;;;23.45;11.80;;;13.10;99.90;;;;;;5056003;28;20056;-77
2022/05/10 04:55:51;;;;;;;17.88;11.77;;;13.10;99.90;;;;;;5056056;28;20037;-77
2022/05/10 04:58:17;;;;;;;19.80;11.30;;;13.20;99.90;;;;;;5055911;28;20059;-77
2022/05/10 05:00:43;;;;;;;18.23;11.23;;;13.20;99.90;;;;;;5055847;28;20041;-77
2022/05/10 05:03:08;;;;;;;17.90;11.15;;;13.30;99.90;;;;;;5055479;28;20053;-77
2022/05/10 05:05:34;;;;;;;19.40;11.20;;;13.30;99.90;;;;;;5055548;28;20126;-77
2022/05/10 05:08:00;;;;;;;16.88;10.82;;;13.40;99.90;;;;;;5054858;28;20037;-77
2022/05/10 05:10:25;;;;;;;17.05;11.05;;;13.40;99.90;;;;;;5087929;28;20045;-77
2022/05/10 05:12:51;;;;;;;17.98;10.75;;;13.40;99.90;;;;;;5055464;28;20153;-77
2022/05/10 05:15:18;;;;;;;17.48;11.13;;;13.40;99.90;;;;;;5055456;28;20110;-77
2022/05/10 05:17:43;;;;;;;19.25;10.73;;;13.50;99.90;;;;;;5055261;28;20400;-77
2022/05/10 05:20:11;;;;;;;21.05;10.98;;;13.50;99.90;;;;;;5055522;28;20476;-77
2022/05/10 05:22:37;;;;;;;18.83;10.90;;;13.50;99.90;;;;;;5055495;28;20045;-77
2022/05/10 05:25:04;;;;;;;21.63;11.13;;;13.60;99.90;;;;;;5055486;28;20041;-77
2022/05/10 05:27:30;;;;;;;18.38;11.48;;;13.60;99.90;;;;;;5055410;28;20080;-77
2022/05/10 05:29:56;;;;;;;17.48;11.20;;;13.60;99.90;;;;;;5055346;28;20072;-77
2022/05/10 05:32:26;;;;;;;19.83;10.38;;;13.70;99.90;;;;;;5087568;28;20083;-77
2022/05/10 05:34:52;;;;;;;20.30;12.18;;;13.80;99.90;;;;;;5055108;28;20025;-77
2022/05/10 05:37:33;;;;;;;21.75;11.05;;;13.80;99.90;;;;;;5054929;28;20040;-77
2022/05/10 05:39:59;;;;;;;20.27;11.70;;;13.80;99.90;;;;;;5054959;28;20124;-77
2022/05/10 05:42:25;;;;;;;18.25;12.02;;;13.90;99.90;;;;;;5055179;28;20044;-78
2022/05/10 05:44:51;;;;;;;19.10;11.32;;;13.90;99.90;;;;;;5055138;28;20043;-77
2022/05/10 05:47:17;;;;;;;15.10;10.38;;;14.00;99.90;;;;;;5054951;28;20048;-77
2022/05/10 05:49:43;;;;;;;15.00;10.93;;;14.10;99.90;;;;;;5054904;28;20055;-77
2022/05/10 05:52:08;;;;;;;20.65;11.68;;;14.10;99.90;;;;;;5054860;28;20053;-78
2022/05/10 05:54:34;;;;;;;15.65;10.27;;;14.10;99.90;;;;;;5054867;28;20041;-77
2022/05/10 05:57:05;;;;;;;18.88;11.35;;;14.20;99.90;;;;;;5054878;28;20045;-77
2022/05/10 05:59:31;;;;;;;19.40;11.95;;;14.20;99.90;;;;;;5054749;28;20037;-77
2022/05/10 06:01:57;;;;;;;17.65;10.80;;;14.30;99.90;;;;;;5054461;28;20045;-78
2022/05/10 06:04:23;;;;;;;15.02;10.93;;;14.30;99.90;;;;;;5054181;28;20045;-77
2022/05/10 06:06:49;;;;;;;18.33;11.13;;;14.40;99.90;;;;;;5054654;28;20041;-78
2022/05/10 06:09:19;;;;;;;15.57;10.35;;;14.40;99.90;;;;;;5054552;28;20029;-77
2022/05/10 06:11:45;;;;;;;18.77;11.43;;;14.50;99.90;;;;;;5054408;28;20568;-77
2022/05/10 06:14:11;;;;;;;15.43;10.35;;;14.60;99.90;;;;;;5054335;28;20129;-77
2022/05/10 06:16:40;;;;;;;15.18;10.82;;;14.70;99.90;;;;;;5053439;28;20053;-78
2022/05/10 06:19:07;;;;;;;18.33;10.35;;;14.80;99.90;;;;;;5054332;28;20099;-78
2022/05/10 06:21:33;;;;;;;16.38;10.70;;;14.90;99.90;;;;;;5054392;28;20116;-79
2022/05/10 06:23:58;;;;;;;18.38;10.57;;;15.00;99.90;;;;;;5054313;28;20147;-79
2022/05/10 06:26:24;;;;;;;15.85;10.63;;;15.10;99.90;;;;;;5054155;28;20044;-79
2022/05/10 06:28:50;;;;;;;20.10;11.27;;;15.20;99.90;;;;;;5054180;28;20091;-76
2022/05/10 06:31:15;;;;;;;17.17;11.45;;;15.30;99.90;;;;;;5054124;28;20059;-76
2022/05/10 06:33:41;;;;;;;17.92;11.20;;;15.50;99.90;;;;;;5054183;28;20045;-76
2022/05/10 06:36:07;;;;;;;17.65;10.43;;;15.50;99.90;;;;;;5053955;28;20040;-76
2022/05/10 06:38:34;;;;;;;17.55;10.50;;;15.60;99.90;;;;;;5052613;28;20041;-76
2022/05/10 06:41:01;;;;;;;15.77;10.25;;;15.70;99.90;;;;;;5053873;28;20500;-76
2022/05/10 06:43:28;;;;;;;15.77;10.43;;;15.80;99.90;;;;;;5053613;28;20044;-75
2022/05/10 06:45:57;;;;;;;19.05;10.43;;;15.90;99.90;;;;;;5063648;28;20044;-74
2022/05/10 06:48:24;;;;;;;15.50;10.73;;;15.90;99.90;;;;;;5054290;28;20124;-74
2022/05/10 06:50:49;;;;;;;16.73;10.20;;;16.00;99.90;;;;;;5053648;28;20077;-75
2022/05/10 06:53:16;;;;;;;16.25;10.25;;;16.00;99.90;;;;;;5053483;28;20570;-75
2022/05/10 06:55:42;;;;;;;16.33;10.48;;;16.10;99.90;;;;;;5053241;28;20069;-76
2022/05/10 06:58:08;;;;;;;16.73;10.15;;;16.10;99.90;;;;;;5053245;28;20103;-75
2022/05/10 07:00:37;;;;;;;14.45;9.65;;;16.20;99.90;;;;;;5053470;28;20098;-75
2022/05/10 07:03:08;;;;;;;17.17;10.38;;;16.30;99.90;;;;;;5053113;28;20508;-75
2022/05/10 07:05:34;;;;;;;15.68;10.43;;;16.30;99.90;;;;;;5052070;28;20083;-76
2022/05/10 07:08:00;;;;;;;14.65;9.65;;;16.30;99.90;;;;;;5053470;28;20041;-76
2022/05/10 07:10:25;;;;;;;16.73;9.88;;;16.40;99.90;;;;;;5053029;28;20063;-76
2022/05/10 07:12:52;;;;;;;16.00;10.27;;;16.40;99.90;;;;;;5053074;28;20037;-76
2022/05/10 07:15:19;;;;;;;14.13;9.57;;;16.50;99.90;;;;;;5053386;28;20049;-76
2022/05/10 07:17:45;;;;;;;14.80;9.73;;;16.50;99.90;;;;;;5052151;28;20087;-76
2022/05/10 07:20:13;;;;;;;12.18;9.27;;;16.50;99.90;;;;;;5053184;28;20045;-76
2022/05/10 07:22:39;;;;;;;14.82;9.55;;;16.50;99.90;;;;;;5053080;28;20048;-76
2022/05/10 07:25:06;;;;;;;14.43;8.90;;;16.60;99.90;;;;;;5051731;28;20052;-76
2022/05/10 07:27:31;;;;;;;10.05;7.50;;;16.60;99.90;;;;;;5053191;28;20148;-75
2022/05/10 07:29:57;;;;;;;10.77;8.13;;;16.70;99.90;;;;;;5053940;28;20132;-75
2022/05/10 07:32:24;;;;;;;12.85;7.80;;;16.70;99.90;;;;;;5057224;28;20125;-75
2022/05/10 07:34:50;;;;;;;17.45;7.93;;;16.80;99.90;;;;;;5056141;28;20120;-75
2022/05/10 07:37:15;;;;;;;12.38;7.30;;;17.00;99.90;;;;;;5055766;28;20438;-75
2022/05/10 07:39:41;;;;;;;11.55;7.03;;;17.00;99.90;;;;;;5057169;28;20044;-76
2022/05/10 07:42:07;;;;;;;12.68;7.40;;;17.10;99.90;;;;;;5057180;28;20045;-75
2022/05/10 07:44:33;;;;;;;16.63;7.28;;;17.20;99.90;;;;;;5056953;28;20106;-75
2022/05/10 07:46:59;;;;;;;10.98;7.40;;;17.30;99.90;;;;;;5056586;28;20400;-75
2022/05/10 07:49:25;;;;;;;13.02;7.60;;;17.40;99.90;;;;;;5067101;28;20480;-75
2022/05/10 07:51:51;;;;;;;15.23;7.22;;;17.40;99.90;;;;;;5056697;28;20484;-75
2022/05/10 07:54:17;;;;;;;13.50;7.80;;;17.50;99.90;;;;;;5056950;28;20041;-75
2022/05/10 07:56:43;;;;;;;17.65;7.47;;;17.60;99.90;;;;;;5056982;28;20396;-75
2022/05/10 07:59:09;;;;;;;13.18;7.32;;;17.60;99.90;;;;;;5056888;28;20067;-75
2022/05/10 08:01:36;;;;;;;12.25;7.30;;;17.70;99.90;;;;;;5056650;28;20072;-75
2022/05/10 08:04:02;;;;;;;13.45;7.85;;;17.70;99.90;;;;;;5055107;28;20451;-75
2022/05/10 08:06:28;;;;;;;15.35;7.75;;;17.80;99.90;;;;;;5056850;28;20037;-75
2022/05/10 08:08:54;;;;;;;18.15;9.48;;;17.90;99.90;;;;;;5056675;28;20124;-75
2022/05/10 08:11:20;;;;;;;18.77;8.52;;;17.90;99.90;;;;;;5056671;28;20128;-76
2022/05/10 08:13:46;;;;;;;16.27;8.18;;;17.90;99.90;;;;;;5056616;28;20037;-76
2022/05/10 08:16:11;;;;;;;15.73;9.38;;;18.00;99.90;;;;;;5073692;28;20044;-76
2022/05/10 08:18:44;;;;;;;21.05;9.40;;;18.00;99.90;;;;;;5069684;28;20043;-76
2022/05/10 08:21:09;;;;;;;15.63;9.00;;;18.10;99.90;;;;;;5060620;28;20043;-76
2022/05/10 08:23:36;;;;;;;14.73;8.23;;;18.20;99.90;;;;;;5056013;28;20033;-76
2022/05/10 08:26:03;;;;;;;13.60;7.93;;;18.20;99.90;;;;;;5056405;28;20037;-76
2022/05/10 08:28:31;;;;;;;14.30;7.45;;;18.30;99.90;;;;;;5056104;28;20392;-76
2022/05/10 08:30:58;;;;;;;15.10;8.05;;;18.40;99.90;;;;;;5056075;28;20091;-76
2022/05/10 08:33:25;;;;;;;10.90;7.40;;;18.50;99.90;;;;;;5054796;28;20120;-76
2022/05/10 08:35:53;;;;;;;13.77;7.65;;;18.60;99.90;;;;;;5056201;28;20083;-76
2022/05/10 08:38:19;;;;;;;13.88;7.95;;;18.70;99.90;;;;;;5055952;28;20051;-75
2022/05/10 08:41:24;;;;;;;10.77;7.47;;;18.80;99.90;;;;;;5055080;28;20121;-75
2022/05/10 08:44:15;;;;;;;13.98;7.20;;;18.80;99.90;;;;;;5055814;28;20052;-76
2022/05/10 08:46:45;;;;;;;12.68;6.75;;;18.90;99.90;;;;;;5055670;28;20045;-75
2022/05/10 08:49:33;;;;;;;9.80;7.00;;;18.90;99.90;;;;;;5054465;28;20053;-75
2022/05/10 08:51:58;;;;;;;12.23;6.75;;;19.00;99.90;;;;;;5055914;28;20072;-75
2022/05/10 08:54:26;;;;;;;12.00;6.60;;;19.10;99.90;;;;;;5055046;28;20067;-75
2022/05/10 08:56:56;;;;;;;12.40;5.82;;;19.30;99.90;;;;;;5055379;28;20408;-76
2022/05/10 08:59:35;;;;;;;11.85;5.82;;;19.30;99.90;;;;;;5055508;28;20084;-82
2022/05/10 09:02:07;;;;;;;13.40;6.25;;;19.40;99.90;;;;;;5054417;28;20052;-83
2022/05/10 09:04:39;;;;;;;11.52;5.25;;;19.50;99.90;;;;;;5054255;28;20053;-79
2022/05/10 09:07:23;;;;;;;12.10;5.88;;;19.60;99.90;;;;;;5054388;28;20057;-81
2022/05/10 09:10:04;;;;;;;12.32;5.80;;;19.60;99.90;;;;;;5054062;28;20041;-83
2022/05/10 09:12:45;;;;;;;15.25;6.57;;;19.70;99.90;;;;;;5055312;28;20480;-82
2022/05/10 09:15:12;;;;;;;9.07;5.55;;;19.80;99.90;;;;;;5055554;28;20045;-81
2022/05/10 09:17:39;;;;;;;11.90;6.45;;;19.90;99.90;;;;;;5055042;28;20370;-83
2022/05/10 09:20:08;;;;;;;16.17;6.53;;;19.90;99.90;;;;;;5055405;28;20111;-83
2022/05/10 09:23:12;;;;;;;9.65;6.07;;;19.90;99.90;;;;;;5055013;28;20411;-83
2022/05/10 09:25:41;;;;;;;16.33;6.82;;;20.00;99.90;;;;;;5055335;28;20048;-81
2022/05/10 09:28:34;;;;;;;10.40;6.30;;;20.10;99.90;;;;;;5055187;28;20179;-81
2022/05/10 09:37:13;;;;;;;13.95;6.97;;;20.30;99.90;;;;;;4996843;28;20099;-85
2022/05/10 09:39:49;;;;;;;15.35;6.72;;;20.30;99.90;;;;;;5044788;28;20048;-77
2022/05/10 09:42:38;;;;;;;12.70;7.50;;;20.30;99.90;;;;;;5054967;28;20068;-80
2022/05/10 09:45:17;;;;;;;16.48;7.95;;;20.30;99.90;;;;;;5054957;28;20052;-80
2022/05/10 09:47:58;;;;;;;15.00;7.40;;;20.40;99.90;;;;;;5054631;28;20037;-79
2022/05/10 09:50:31;;;;;;;14.35;7.03;;;20.30;99.90;;;;;;5054782;28;20051;-79
2022/05/10 09:53:11;;;;;;;12.48;7.95;;;20.40;99.90;;;;;;5054029;28;20056;-80
2022/05/10 09:55:38;;;;;;;17.35;8.43;;;20.40;99.90;;;;;;5054704;28;20060;-80
2022/05/10 09:58:27;;;;;;;15.13;7.43;;;20.50;99.90;;;;;;5054489;28;20492;-81
2022/05/10 10:00:53;;;;;;;13.13;8.07;;;20.60;99.90;;;;;;5054484;28;20059;-81
2022/05/10 10:03:27;;;;;;;22.55;8.52;;;20.60;99.90;;;;;;5052797;28;20131;-80
2022/05/10 10:05:56;;;;;;;15.43;8.05;;;20.60;99.90;;;;;;5054628;28;20133;-80
2022/05/10 10:08:43;;;;;;;14.63;8.15;;;20.60;99.90;;;;;;5054440;28;20041;-76
2022/05/10 10:11:26;;;;;;;12.80;7.90;;;20.70;99.90;;;;;;5054322;28;20049;-77
2022/05/10 10:13:56;;;;;;;14.18;8.43;;;20.80;99.90;;;;;;5054327;28;20094;-77
2022/05/10 10:16:26;;;;;;;17.05;9.57;;;20.80;99.90;;;;;;5054073;28;20134;-78
2022/05/10 10:19:01;;;;;;;20.30;9.50;;;20.80;99.90;;;;;;5086391;28;20132;-78
2022/05/10 10:21:39;;;;;;;18.13;9.68;;;20.80;99.90;;;;;;5054369;28;20169;-78
2022/05/10 10:24:05;;;;;;;18.08;10.20;;;20.70;99.90;;;;;;5052897;28;20083;-78
2022/05/10 10:26:37;;;;;;;15.32;9.07;;;20.70;99.90;;;;;;5052727;28;20130;-78
2022/05/10 10:29:30;;;;;;;14.27;9.68;;;20.70;99.90;;;;;;5054212;28;20155;-78
2022/05/10 10:32:04;;;;;;;14.85;10.43;;;20.70;99.90;;;;;;5053855;28;20447;-78
2022/05/10 10:35:11;;;;;;;15.38;10.27;;;20.70;99.90;;;;;;5054080;28;20052;-78
2022/05/10 10:37:54;;;;;;;17.85;10.07;;;20.70;99.90;;;;;;5048122;28;20136;-78
2022/05/10 10:40:40;;;;;;;21.55;10.07;;;20.70;99.90;;;;;;5052880;28;20052;-78
2022/05/10 10:43:17;;;;;;;17.88;10.57;;;20.70;99.90;;;;;;5053721;28;20047;-78
2022/05/10 10:45:45;;;;;;;15.07;10.13;;;20.70;99.90;;;;;;5053987;28;20071;-78
2022/05/10 10:48:10;;;;;;;17.08;10.70;;;20.70;99.90;;;;;;5053636;28;20488;-78
2022/05/10 10:50:36;;;;;;;21.13;11.35;;;20.70;99.90;;;;;;5053501;28;20053;-78
2022/05/10 10:53:04;;;;;;;17.20;11.00;;;20.60;99.90;;;;;;5053888;28;20484;-78
2022/05/10 10:55:44;;;;;;;18.45;10.73;;;20.60;99.90;;;;;;5053533;28;20095;-78
2022/05/10 10:58:37;;;;;;;20.15;11.57;;;20.60;99.90;;;;;;5053844;28;20118;-78
2022/05/10 11:01:36;;;;;;;18.33;11.38;;;20.60;99.90;;;;;;5053743;28;20381;-78
2022/05/10 11:04:36;;;;;;;21.30;12.80;;;20.50;99.90;;;;;;5052926;28;20143;-77
2022/05/10 11:07:13;;;;;;;19.83;10.50;;;20.50;99.90;;;;;;5052237;28;20053;-78
2022/05/10 11:10:11;;;;;;;19.90;12.40;;;20.60;99.90;;;;;;5053375;28;20492;-78
2022/05/10 11:12:45;;;;;;;17.73;12.43;;;20.60;99.90;;;;;;5052163;28;20087;-78
2022/05/10 11:15:25;;;;;;;17.85;11.90;;;20.70;99.90;;;;;;5052384;28;20132;-78
2022/05/10 11:17:56;;;;;;;20.40;13.02;;;20.60;99.90;;;;;;5052353;28;20071;-78
2022/05/10 11:20:44;;;;;;;18.45;12.32;;;20.60;99.90;;;;;;5051996;28;20409;-79
2022/05/10 11:23:13;;;;;;;21.13;12.70;;;20.60;99.90;;;;;;5053155;28;20527;-78
2022/05/10 11:26:32;;;;;;;21.05;12.57;;;20.60;99.90;;;;;;5053473;28;20037;-78
2022/05/10 11:29:33;;;;;;;17.45;12.77;;;20.70;99.90;;;;;;4994971;28;20057;-78
2022/05/10 11:32:01;;;;;;;23.05;11.93;;;20.80;99.90;;;;;;5011433;28;20046;-78
2022/05/10 11:34:55;;;;;;;14.75;10.68;;;20.80;99.90;;;;;;5041464;28;20491;-78
2022/05/10 11:37:36;;;;;;;19.55;10.02;;;20.80;99.90;;;;;;5053213;28;20045;-78
2022/05/10 11:40:05;;;;;;;18.27;8.40;;;20.90;99.90;;;;;;5053116;28;20053;-79
2022/05/10 11:42:47;;;;;;;14.40;7.78;;;20.90;99.90;;;;;;5053022;28;20048;-78
2022/05/10 11:45:37;;;;;;;23.02;8.43;;;20.90;99.90;;;;;;5052314;28;20056;-78
2022/05/10 11:48:09;;;;;;;16.40;7.15;;;20.90;99.90;;;;;;5051773;28;20049;-78
2022/05/10 11:53:46;;;;;;;14.90;7.13;;;20.80;99.90;;;;;;5053094;28;20298;-78
2022/05/10 11:56:12;;;;;;;11.85;7.20;;;20.80;99.90;;;;;;5053202;28;20094;-78
2022/05/10 11:58:38;;;;;;;14.55;6.78;;;20.80;99.90;;;;;;5051986;28;20049;-78
2022/05/10 12:01:10;;;;;;;17.55;7.57;;;20.80;99.90;;;;;;5053426;28;20045;-78
2022/05/10 12:03:36;;;;;;;16.13;7.43;;;21.00;99.90;;;;;;5051525;28;20060;-78
2022/05/10 12:06:23;;;;;;;11.85;6.82;;;21.00;99.90;;;;;;5052852;28;20055;-78
2022/05/10 12:08:54;;;;;;;10.00;6.43;;;21.20;99.90;;;;;;5051618;28;20452;-78
2022/05/10 12:11:30;;;;;;;11.75;5.95;;;21.40;99.90;;;;;;5053043;28;20041;-78
2022/05/10 12:22:17;;;;;;;12.73;3.90;;;21.60;99.90;;;;;;5067156;28;20079;-79
2022/05/10 12:24:47;;;;;;;9.38;3.70;;;21.60;99.90;;;;;;5056326;28;20045;-78
2022/05/10 12:27:13;;;;;;;22.23;4.13;;;21.60;99.90;;;;;;5056093;28;20131;-79
2022/05/10 12:29:38;;;;;;;10.02;4.22;;;21.60;99.90;;;;;;5055060;28;20131;-79
2022/05/10 12:32:08;;;;;;;10.60;4.03;;;21.50;99.90;;;;;;5056311;28;20549;-78
2022/05/10 12:34:52;;;;;;;10.60;4.68;;;21.60;99.90;;;;;;5056053;28;20566;-77
2022/05/10 12:37:30;;;;;;;11.05;4.20;;;21.60;99.90;;;;;;5055947;28;20490;-78
2022/05/10 12:39:57;;;;;;;8.88;3.83;;;21.40;99.90;;;;;;5056284;28;20045;-77
2022/05/10 12:42:33;;;;;;;11.40;4.70;;;21.30;99.90;;;;;;5055907;28;20210;-78
2022/05/10 12:45:23;;;;;;;8.77;3.53;;;21.20;99.90;;;;;;5055960;28;20040;-75
2022/05/10 12:48:07;;;;;;;9.88;3.78;;;21.10;99.90;;;;;;5056045;28;20044;-75
2022/05/10 12:51:04;;;;;;;8.73;3.92;;;21.00;99.90;;;;;;5055959;28;20124;-75
2022/05/10 12:53:54;;;;;;;8.77;3.83;;;20.80;99.90;;;;;;5055993;28;20128;-75
2022/05/10 12:56:24;;;;;;;7.25;3.55;;;20.70;99.90;;;;;;5055567;28;20392;-79
2022/05/10 12:59:06;;;;;;;10.25;4.78;;;20.50;99.90;;;;;;5056047;28;20053;-77
2022/05/10 13:01:35;;;;;;;12.27;4.72;;;20.30;99.90;;;;;;5055897;28;20049;-77
2022/05/10 13:04:21;;;;;;;11.43;4.88;;;20.20;99.90;;;;;;5055301;28;20492;-77
2022/05/10 13:07:14;;;;;;;9.20;4.85;;;20.00;99.90;;;;;;5055631;28;20095;-78
2022/05/10 13:09:54;;;;;;;14.07;5.75;;;19.90;99.90;;;;;;5055591;28;20045;-77
2022/05/10 13:12:28;;;;;;;12.93;5.72;;;19.90;99.90;;;;;;5055694;28;20060;-76
2022/05/10 13:15:00;;;;;;;14.93;5.78;;;19.70;99.90;;;;;;5087681;28;20045;-77
2022/05/10 13:17:34;;;;;;;12.43;5.70;;;19.70;99.90;;;;;;5055235;28;20497;-77
2022/05/10 13:20:06;;;;;;;17.25;6.82;;;19.60;99.90;;;;;;5055210;28;20047;-77